sensor_id;sensor_type;location;lat;lon;timestamp;temperature;humidity
20364;DHT22;10340;53.664;9.908;2022-10-17T00:00:10;11.30;99.90
20364;DHT22;10340;53.664;9.908;2022-10-17T00:02:38;11.40;99.90
20364;DHT22;10340;53.664;9.908;2022-10-17T00:05:05;11.40;99.90
20364;DHT22;10340;53.664;9.908;2022-10-17T00:07:32;11.40;99.90
20364;DHT22;10340;53.664;9.908;2022-10-17T00:09:59;11.40;99.90
20364;DHT22;10340;53.664;9.908;2022-10-17T00:12:25;11.50;99.90
20364;DHT22;10340;53.664;9.908;2022-10-17T00:14:52;11.50;99.90
20364;DHT22;10340;53.664;9.908;2022-10-17T00:17:19;11.50;99.90
20364;DHT22;10340;53.664;9.908;2022-10-17T00:19:47;11.50;99.90
20364;DHT22;10340;53.664;9.908;2022-10-17T00:22:14;11.50;99.90
20364;DHT22;10340;53.664;9.908;2022-10-17T00:24:41;11.60;99.90
20364;DHT22;10340;53.664;9.908;2022-10-17T00:27:08;11.60;99.90
20364;DHT22;10340;53.664;9.908;2022-10-17T00:29:35;11.60;99.90
20364;DHT22;10340;53.664;9.908;2022-10-17T00:32:01;11.60;99.90
20364;DHT22;10340;53.664;9.908;2022-10-17T00:34:29;11.60;99.90
20364;DHT22;10340;53.664;9.908;2022-10-17T00:36:57;11.60;99.90
20364;DHT22;10340;53.664;9.908;2022-10-17T00:39:24;11.60;99.90
20364;DHT22;10340;53.664;9.908;2022-10-17T00:41:51;11.60;99.90
20364;DHT22;10340;53.664;9.908;2022-10-17T00:47:22;11.70;99.90
20364;DHT22;10340;53.664;9.908;2022-10-17T00:49:49;11.70;99.90
20364;DHT22;10340;53.664;9.908;2022-10-17T00:52:21;11.70;99.90
20364;DHT22;10340;53.664;9.908;2022-10-17T00:54:54;11.70;99.90
20364;DHT22;10340;53.664;9.908;2022-10-17T00:57:22;11.70;99.90
20364;DHT22;10340;53.664;9.908;2022-10-17T00:59:51;11.70;99.90
20364;DHT22;10340;53.664;9.908;2022-10-17T01:02:21;11.70;99.90
20364;DHT22;10340;53.664;9.908;2022-10-17T01:04:50;11.70;99.90
20364;DHT22;10340;53.664;9.908;2022-10-17T01:07:19;11.70;99.90
20364;DHT22;10340;53.664;9.908;2022-10-17T01:09:46;11.70;99.90
20364;DHT22;10340;53.664;9.908;2022-10-17T01:12:17;11.70;99.90
20364;DHT22;10340;53.664;9.908;2022-10-17T01:14:53;13.80;99.90
20364;DHT22;10340;53.664;9.908;2022-10-17T01:17:27;11.70;99.90
20364;DHT22;10340;53.664;9.908;2022-10-17T01:20:14;11.70;99.90
20364;DHT22;10340;53.664;9.908;2022-10-17T01:22:50;11.70;99.90
20364;DHT22;10340;53.664;9.908;2022-10-17T01:25:28;11.70;99.90
20364;DHT22;10340;53.664;9.908;2022-10-17T01:28:15;11.70;99.90
20364;DHT22;10340;53.664;9.908;2022-10-17T01:31:05;11.70;99.90
20364;DHT22;10340;53.664;9.908;2022-10-17T01:33:52;11.70;99.90
20364;DHT22;10340;53.664;9.908;2022-10-17T01:36:31;11.70;99.90
20364;DHT22;10340;53.664;9.908;2022-10-17T01:39:02;11.70;99.90
20364;DHT22;10340;53.664;9.908;2022-10-17T01:41:38;11.70;99.90
20364;DHT22;10340;53.664;9.908;2022-10-17T01:44:11;11.80;99.90
20364;DHT22;10340;53.664;9.908;2022-10-17T01:46:42;11.90;99.90
20364;DHT22;10340;53.664;9.908;2022-10-17T01:49:12;11.80;99.90
20364;DHT22;10340;53.664;9.908;2022-10-17T01:51:42;11.90;99.90
20364;DHT22;10340;53.664;9.908;2022-10-17T01:54:14;11.80;99.90
20364;DHT22;10340;53.664;9.908;2022-10-17T01:56:43;11.80;99.90
20364;DHT22;10340;53.664;9.908;2022-10-17T01:59:13;11.80;99.90
20364;DHT22;10340;53.664;9.908;2022-10-17T02:01:44;11.90;99.90
20364;DHT22;10340;53.664;9.908;2022-10-17T02:04:11;11.90;99.90
20364;DHT22;10340;53.664;9.908;2022-10-17T02:06:38;11.90;99.90
20364;DHT22;10340;53.664;9.908;2022-10-17T02:09:20;11.90;99.90
20364;DHT22;10340;53.664;9.908;2022-10-17T02:12:00;11.90;99.90
20364;DHT22;10340;53.664;9.908;2022-10-17T02:14:36;11.90;99.90
20364;DHT22;10340;53.664;9.908;2022-10-17T02:17:14;11.90;99.90
20364;DHT22;10340;53.664;9.908;2022-10-17T02:19:51;11.90;99.90
20364;DHT22;10340;53.664;9.908;2022-10-17T02:22:26;11.90;99.90
20364;DHT22;10340;53.664;9.908;2022-10-17T02:25:01;11.90;99.90
20364;DHT22;10340;53.664;9.908;2022-10-17T02:27:36;12.00;99.90
20364;DHT22;10340;53.664;9.908;2022-10-17T02:30:11;12.00;99.90
20364;DHT22;10340;53.664;9.908;2022-10-17T02:32:46;11.90;99.90
20364;DHT22;10340;53.664;9.908;2022-10-17T02:35:16;11.90;99.90
20364;DHT22;10340;53.664;9.908;2022-10-17T02:37:45;11.90;99.90
20364;DHT22;10340;53.664;9.908;2022-10-17T02:40:14;12.00;99.90
20364;DHT22;10340;53.664;9.908;2022-10-17T02:42:44;12.00;99.90
20364;DHT22;10340;53.664;9.908;2022-10-17T02:45:12;12.00;99.90
20364;DHT22;10340;53.664;9.908;2022-10-17T02:47:49;12.00;99.90
20364;DHT22;10340;53.664;9.908;2022-10-17T02:50:20;12.10;99.90
20364;DHT22;10340;53.664;9.908;2022-10-17T02:52:51;12.10;99.90
20364;DHT22;10340;53.664;9.908;2022-10-17T02:55:23;12.10;99.90
20364;DHT22;10340;53.664;9.908;2022-10-17T02:57:53;12.10;99.90
20364;DHT22;10340;53.664;9.908;2022-10-17T03:00:22;12.30;99.90
20364;DHT22;10340;53.664;9.908;2022-10-17T03:02:52;12.30;99.90
20364;DHT22;10340;53.664;9.908;2022-10-17T03:05:21;12.30;99.90
20364;DHT22;10340;53.664;9.908;2022-10-17T03:07:49;12.40;99.90
20364;DHT22;10340;53.664;9.908;2022-10-17T03:10:16;12.40;99.90
20364;DHT22;10340;53.664;9.908;2022-10-17T03:12:43;12.40;99.90
20364;DHT22;10340;53.664;9.908;2022-10-17T03:15:10;12.40;99.90
20364;DHT22;10340;53.664;9.908;2022-10-17T03:17:37;12.50;99.90
20364;DHT22;10340;53.664;9.908;2022-10-17T03:20:06;12.40;99.90
20364;DHT22;10340;53.664;9.908;2022-10-17T03:22:33;12.50;99.90
20364;DHT22;10340;53.664;9.908;2022-10-17T03:25:00;12.60;99.90
20364;DHT22;10340;53.664;9.908;2022-10-17T03:27:27;12.60;99.90
20364;DHT22;10340;53.664;9.908;2022-10-17T03:29:54;12.60;99.90
20364;DHT22;10340;53.664;9.908;2022-10-17T03:32:21;12.60;99.90
20364;DHT22;10340;53.664;9.908;2022-10-17T03:34:48;12.60;99.90
20364;DHT22;10340;53.664;9.908;2022-10-17T03:37:16;12.60;99.90
20364;DHT22;10340;53.664;9.908;2022-10-17T03:39:43;12.60;99.90
20364;DHT22;10340;53.664;9.908;2022-10-17T03:42:10;12.60;99.90
20364;DHT22;10340;53.664;9.908;2022-10-17T03:44:37;12.50;99.90
20364;DHT22;10340;53.664;9.908;2022-10-17T03:47:03;12.60;99.90
20364;DHT22;10340;53.664;9.908;2022-10-17T03:49:30;12.60;99.90
20364;DHT22;10340;53.664;9.908;2022-10-17T03:51:57;12.60;99.90
20364;DHT22;10340;53.664;9.908;2022-10-17T03:54:25;12.60;99.90
20364;DHT22;10340;53.664;9.908;2022-10-17T03:56:52;12.60;99.90
20364;DHT22;10340;53.664;9.908;2022-10-17T03:59:19;12.70;99.90
20364;DHT22;10340;53.664;9.908;2022-10-17T04:01:46;12.60;99.90
20364;DHT22;10340;53.664;9.908;2022-10-17T04:04:13;12.60;99.90
20364;DHT22;10340;53.664;9.908;2022-10-17T04:06:40;12.60;99.90
20364;DHT22;10340;53.664;9.908;2022-10-17T04:09:07;12.60;99.90
20364;DHT22;10340;53.664;9.908;2022-10-17T04:11:35;12.60;99.90
20364;DHT22;10340;53.664;9.908;2022-10-17T04:14:02;12.60;99.90
20364;DHT22;10340;53.664;9.908;2022-10-17T04:16:29;12.50;99.90
20364;DHT22;10340;53.664;9.908;2022-10-17T04:18:57;12.60;99.90
20364;DHT22;10340;53.664;9.908;2022-10-17T04:21:26;12.50;99.90
20364;DHT22;10340;53.664;9.908;2022-10-17T04:23:53;12.60;99.90
20364;DHT22;10340;53.664;9.908;2022-10-17T04:26:21;12.50;99.90
20364;DHT22;10340;53.664;9.908;2022-10-17T04:28:49;12.50;99.90
20364;DHT22;10340;53.664;9.908;2022-10-17T04:31:16;12.50;99.90
20364;DHT22;10340;53.664;9.908;2022-10-17T04:33:46;12.50;99.90
20364;DHT22;10340;53.664;9.908;2022-10-17T04:36:15;12.50;99.90
20364;DHT22;10340;53.664;9.908;2022-10-17T04:38:42;12.50;99.90
20364;DHT22;10340;53.664;9.908;2022-10-17T04:41:10;12.60;99.90
20364;DHT22;10340;53.664;9.908;2022-10-17T04:43:38;12.50;99.90
20364;DHT22;10340;53.664;9.908;2022-10-17T04:46:08;12.50;99.90
20364;DHT22;10340;53.664;9.908;2022-10-17T04:48:36;12.50;99.90
20364;DHT22;10340;53.664;9.908;2022-10-17T04:51:05;12.50;99.90
20364;DHT22;10340;53.664;9.908;2022-10-17T04:53:34;12.50;99.90
20364;DHT22;10340;53.664;9.908;2022-10-17T04:56:07;12.50;99.90
20364;DHT22;10340;53.664;9.908;2022-10-17T04:58:34;12.50;99.90
20364;DHT22;10340;53.664;9.908;2022-10-17T05:01:04;12.50;99.90
20364;DHT22;10340;53.664;9.908;2022-10-17T05:03:32;12.40;99.90
20364;DHT22;10340;53.664;9.908;2022-10-17T05:06:03;12.30;99.90
20364;DHT22;10340;53.664;9.908;2022-10-17T05:08:30;12.30;99.90
20364;DHT22;10340;53.664;9.908;2022-10-17T05:10:57;12.30;99.90
20364;DHT22;10340;53.664;9.908;2022-10-17T05:13:24;12.30;99.90
20364;DHT22;10340;53.664;9.908;2022-10-17T05:15:51;12.20;99.90
20364;DHT22;10340;53.664;9.908;2022-10-17T05:18:18;12.20;99.90
20364;DHT22;10340;53.664;9.908;2022-10-17T05:20:46;12.20;99.90
20364;DHT22;10340;53.664;9.908;2022-10-17T05:23:13;12.20;99.90
20364;DHT22;10340;53.664;9.908;2022-10-17T05:25:40;12.20;99.90
20364;DHT22;10340;53.664;9.908;2022-10-17T05:28:06;12.10;99.90
20364;DHT22;10340;53.664;9.908;2022-10-17T05:30:33;12.20;99.90
20364;DHT22;10340;53.664;9.908;2022-10-17T05:33:00;12.10;99.90
20364;DHT22;10340;53.664;9.908;2022-10-17T05:35:27;12.10;99.90
20364;DHT22;10340;53.664;9.908;2022-10-17T05:37:57;12.10;99.90
20364;DHT22;10340;53.664;9.908;2022-10-17T05:40:24;12.00;99.90
20364;DHT22;10340;53.664;9.908;2022-10-17T05:42:51;12.00;99.90
20364;DHT22;10340;53.664;9.908;2022-10-17T05:45:18;13.00;99.90
20364;DHT22;10340;53.664;9.908;2022-10-17T05:47:45;12.10;99.90
20364;DHT22;10340;53.664;9.908;2022-10-17T05:50:12;12.00;99.90
20364;DHT22;10340;53.664;9.908;2022-10-17T05:52:38;11.90;99.90
20364;DHT22;10340;53.664;9.908;2022-10-17T05:55:08;11.90;99.90
20364;DHT22;10340;53.664;9.908;2022-10-17T05:57:35;11.90;99.90
20364;DHT22;10340;53.664;9.908;2022-10-17T06:00:03;12.00;99.90
20364;DHT22;10340;53.664;9.908;2022-10-17T06:02:30;11.90;99.90
20364;DHT22;10340;53.664;9.908;2022-10-17T06:04:57;11.90;99.90
20364;DHT22;10340;53.664;9.908;2022-10-17T06:07:24;11.90;99.90
20364;DHT22;10340;53.664;9.908;2022-10-17T06:09:51;12.00;99.90
20364;DHT22;10340;53.664;9.908;2022-10-17T06:12:19;12.00;99.90
20364;DHT22;10340;53.664;9.908;2022-10-17T06:14:46;12.00;99.90
20364;DHT22;10340;53.664;9.908;2022-10-17T06:17:13;12.00;99.90
20364;DHT22;10340;53.664;9.908;2022-10-17T06:19:39;12.00;99.90
20364;DHT22;10340;53.664;9.908;2022-10-17T06:22:07;12.00;99.90
20364;DHT22;10340;53.664;9.908;2022-10-17T06:24:33;12.00;99.90
20364;DHT22;10340;53.664;9.908;2022-10-17T06:27:00;12.10;99.90
20364;DHT22;10340;53.664;9.908;2022-10-17T06:29:29;12.10;99.90
20364;DHT22;10340;53.664;9.908;2022-10-17T06:31:55;12.20;99.90
20364;DHT22;10340;53.664;9.908;2022-10-17T06:34:22;12.20;99.90
20364;DHT22;10340;53.664;9.908;2022-10-17T06:36:49;12.40;99.90
20364;DHT22;10340;53.664;9.908;2022-10-17T06:39:16;12.30;99.90
20364;DHT22;10340;53.664;9.908;2022-10-17T06:41:43;12.40;99.90
20364;DHT22;10340;53.664;9.908;2022-10-17T06:44:10;12.40;99.90
20364;DHT22;10340;53.664;9.908;2022-10-17T06:46:39;12.50;99.90
20364;DHT22;10340;53.664;9.908;2022-10-17T06:49:06;12.60;99.90
20364;DHT22;10340;53.664;9.908;2022-10-17T06:51:35;12.60;99.90
20364;DHT22;10340;53.664;9.908;2022-10-17T06:54:02;12.70;99.90
20364;DHT22;10340;53.664;9.908;2022-10-17T06:56:29;12.70;99.90
20364;DHT22;10340;53.664;9.908;2022-10-17T06:58:56;12.80;99.90
20364;DHT22;10340;53.664;9.908;2022-10-17T07:01:23;12.90;99.90
20364;DHT22;10340;53.664;9.908;2022-10-17T07:03:52;13.00;99.90
20364;DHT22;10340;53.664;9.908;2022-10-17T07:06:19;13.10;99.90
20364;DHT22;10340;53.664;9.908;2022-10-17T07:08:48;13.20;99.90
20364;DHT22;10340;53.664;9.908;2022-10-17T07:11:19;13.30;99.90
20364;DHT22;10340;53.664;9.908;2022-10-17T07:13:46;13.40;99.90
20364;DHT22;10340;53.664;9.908;2022-10-17T07:16:13;14.90;99.90
20364;DHT22;10340;53.664;9.908;2022-10-17T07:18:41;13.50;99.90
20364;DHT22;10340;53.664;9.908;2022-10-17T07:21:09;13.60;99.90
20364;DHT22;10340;53.664;9.908;2022-10-17T07:23:36;13.70;99.90
20364;DHT22;10340;53.664;9.908;2022-10-17T07:26:06;13.80;99.90
20364;DHT22;10340;53.664;9.908;2022-10-17T07:28:34;13.80;99.90
20364;DHT22;10340;53.664;9.908;2022-10-17T07:31:05;13.90;99.90
20364;DHT22;10340;53.664;9.908;2022-10-17T07:33:33;14.00;99.90
20364;DHT22;10340;53.664;9.908;2022-10-17T07:36:00;14.20;99.90
20364;DHT22;10340;53.664;9.908;2022-10-17T07:38:29;14.30;99.90
20364;DHT22;10340;53.664;9.908;2022-10-17T07:40:57;14.30;99.90
20364;DHT22;10340;53.664;9.908;2022-10-17T07:43:25;14.40;99.90
20364;DHT22;10340;53.664;9.908;2022-10-17T07:45:52;14.50;99.90
20364;DHT22;10340;53.664;9.908;2022-10-17T07:48:21;14.60;99.90
20364;DHT22;10340;53.664;9.908;2022-10-17T07:50:48;14.60;99.90
20364;DHT22;10340;53.664;9.908;2022-10-17T07:53:15;14.70;99.90
20364;DHT22;10340;53.664;9.908;2022-10-17T07:55:44;14.80;99.90
20364;DHT22;10340;53.664;9.908;2022-10-17T07:58:12;14.90;99.90
20364;DHT22;10340;53.664;9.908;2022-10-17T08:00:39;15.00;99.90
20364;DHT22;10340;53.664;9.908;2022-10-17T08:03:06;15.10;99.90
20364;DHT22;10340;53.664;9.908;2022-10-17T08:05:33;15.30;99.90
20364;DHT22;10340;53.664;9.908;2022-10-17T08:08:00;15.40;99.90
20364;DHT22;10340;53.664;9.908;2022-10-17T08:10:26;15.50;99.90
20364;DHT22;10340;53.664;9.908;2022-10-17T08:12:56;15.50;99.90
20364;DHT22;10340;53.664;9.908;2022-10-17T08:15:23;15.50;99.90
20364;DHT22;10340;53.664;9.908;2022-10-17T08:17:51;15.60;99.90
20364;DHT22;10340;53.664;9.908;2022-10-17T08:20:20;15.70;99.90
20364;DHT22;10340;53.664;9.908;2022-10-17T08:22:51;15.70;99.90
20364;DHT22;10340;53.664;9.908;2022-10-17T08:25:17;15.70;99.90
20364;DHT22;10340;53.664;9.908;2022-10-17T08:27:44;15.80;99.90
20364;DHT22;10340;53.664;9.908;2022-10-17T08:30:12;15.80;99.90
20364;DHT22;10340;53.664;9.908;2022-10-17T08:32:39;15.90;99.90
20364;DHT22;10340;53.664;9.908;2022-10-17T08:35:07;16.00;99.90
20364;DHT22;10340;53.664;9.908;2022-10-17T08:37:34;16.10;99.90
20364;DHT22;10340;53.664;9.908;2022-10-17T08:40:01;16.20;99.90
20364;DHT22;10340;53.664;9.908;2022-10-17T08:42:48;16.30;99.90
20364;DHT22;10340;53.664;9.908;2022-10-17T08:45:23;16.30;99.90
20364;DHT22;10340;53.664;9.908;2022-10-17T08:47:57;16.40;99.90
20364;DHT22;10340;53.664;9.908;2022-10-17T08:50:29;16.50;99.90
20364;DHT22;10340;53.664;9.908;2022-10-17T08:53:02;16.60;99.90
20364;DHT22;10340;53.664;9.908;2022-10-17T08:55:35;16.60;99.90
20364;DHT22;10340;53.664;9.908;2022-10-17T08:58:04;16.50;99.90
20364;DHT22;10340;53.664;9.908;2022-10-17T09:00:32;16.70;99.90
20364;DHT22;10340;53.664;9.908;2022-10-17T09:03:12;16.80;99.90
20364;DHT22;10340;53.664;9.908;2022-10-17T09:05:47;16.90;99.90
20364;DHT22;10340;53.664;9.908;2022-10-17T09:08:28;17.00;99.90
20364;DHT22;10340;53.664;9.908;2022-10-17T09:11:02;17.00;99.90
20364;DHT22;10340;53.664;9.908;2022-10-17T09:13:45;17.10;99.90
20364;DHT22;10340;53.664;9.908;2022-10-17T09:16:39;17.20;99.90
20364;DHT22;10340;53.664;9.908;2022-10-17T09:19:14;17.30;99.90
20364;DHT22;10340;53.664;9.908;2022-10-17T09:21:46;17.40;99.90
20364;DHT22;10340;53.664;9.908;2022-10-17T09:24:17;17.40;99.90
20364;DHT22;10340;53.664;9.908;2022-10-17T09:26:47;17.50;99.90
20364;DHT22;10340;53.664;9.908;2022-10-17T09:29:17;17.60;99.90
20364;DHT22;10340;53.664;9.908;2022-10-17T09:31:52;17.70;99.90
20364;DHT22;10340;53.664;9.908;2022-10-17T09:34:26;17.80;99.90
20364;DHT22;10340;53.664;9.908;2022-10-17T09:36:54;18.00;99.90
20364;DHT22;10340;53.664;9.908;2022-10-17T09:39:23;18.00;99.90
20364;DHT22;10340;53.664;9.908;2022-10-17T09:41:53;18.10;99.90
20364;DHT22;10340;53.664;9.908;2022-10-17T09:44:22;18.10;99.90
20364;DHT22;10340;53.664;9.908;2022-10-17T09:47:07;18.20;99.90
20364;DHT22;10340;53.664;9.908;2022-10-17T09:49:37;18.40;99.90
20364;DHT22;10340;53.664;9.908;2022-10-17T09:52:07;18.50;99.90
20364;DHT22;10340;53.664;9.908;2022-10-17T09:54:41;18.50;99.90
20364;DHT22;10340;53.664;9.908;2022-10-17T09:57:10;18.60;99.90
20364;DHT22;10340;53.664;9.908;2022-10-17T09:59:39;18.80;99.90
20364;DHT22;10340;53.664;9.908;2022-10-17T10:02:14;18.80;99.90
20364;DHT22;10340;53.664;9.908;2022-10-17T10:04:51;19.00;99.90
20364;DHT22;10340;53.664;9.908;2022-10-17T10:07:19;19.00;99.90
20364;DHT22;10340;53.664;9.908;2022-10-17T10:09:48;19.20;99.90
20364;DHT22;10340;53.664;9.908;2022-10-17T10:12:17;19.40;99.90
20364;DHT22;10340;53.664;9.908;2022-10-17T10:14:44;19.50;99.90
20364;DHT22;10340;53.664;9.908;2022-10-17T10:17:33;19.50;99.90
20364;DHT22;10340;53.664;9.908;2022-10-17T10:20:05;19.60;99.90
20364;DHT22;10340;53.664;9.908;2022-10-17T10:23:04;19.60;99.90
20364;DHT22;10340;53.664;9.908;2022-10-17T10:25:31;19.70;99.90
20364;DHT22;10340;53.664;9.908;2022-10-17T10:27:58;19.70;99.90
20364;DHT22;10340;53.664;9.908;2022-10-17T10:30:29;19.80;99.90
20364;DHT22;10340;53.664;9.908;2022-10-17T10:32:58;19.80;99.90
20364;DHT22;10340;53.664;9.908;2022-10-17T10:35:31;19.80;99.90
20364;DHT22;10340;53.664;9.908;2022-10-17T10:38:01;19.90;99.90
20364;DHT22;10340;53.664;9.908;2022-10-17T10:40:30;20.00;99.90
20364;DHT22;10340;53.664;9.908;2022-10-17T10:42:59;20.00;99.90
20364;DHT22;10340;53.664;9.908;2022-10-17T10:45:28;20.00;99.90
20364;DHT22;10340;53.664;9.908;2022-10-17T10:48:18;20.10;99.90
20364;DHT22;10340;53.664;9.908;2022-10-17T10:50:49;20.10;99.90
20364;DHT22;10340;53.664;9.908;2022-10-17T10:53:31;20.20;99.90
20364;DHT22;10340;53.664;9.908;2022-10-17T10:56:01;20.30;99.90
20364;DHT22;10340;53.664;9.908;2022-10-17T10:58:39;20.30;99.90
20364;DHT22;10340;53.664;9.908;2022-10-17T11:01:26;20.40;99.90
20364;DHT22;10340;53.664;9.908;2022-10-17T11:04:18;20.40;99.90
20364;DHT22;10340;53.664;9.908;2022-10-17T11:06:46;20.40;99.90
20364;DHT22;10340;53.664;9.908;2022-10-17T11:09:25;20.40;99.90
20364;DHT22;10340;53.664;9.908;2022-10-17T11:11:59;20.40;99.90
20364;DHT22;10340;53.664;9.908;2022-10-17T11:14:35;20.40;99.90
20364;DHT22;10340;53.664;9.908;2022-10-17T11:17:08;20.40;99.90
20364;DHT22;10340;53.664;9.908;2022-10-17T11:19:43;20.50;99.90
20364;DHT22;10340;53.664;9.908;2022-10-17T11:22:15;20.50;99.90
20364;DHT22;10340;53.664;9.908;2022-10-17T11:24:45;20.50;99.90
20364;DHT22;10340;53.664;9.908;2022-10-17T11:27:14;20.50;99.90
20364;DHT22;10340;53.664;9.908;2022-10-17T11:29:41;20.60;99.90
20364;DHT22;10340;53.664;9.908;2022-10-17T11:32:14;20.60;99.90
20364;DHT22;10340;53.664;9.908;2022-10-17T11:34:46;20.70;99.90
20364;DHT22;10340;53.664;9.908;2022-10-17T11:37:16;20.70;99.90
20364;DHT22;10340;53.664;9.908;2022-10-17T11:39:47;20.80;99.90
20364;DHT22;10340;53.664;9.908;2022-10-17T11:42:20;20.80;99.90
20364;DHT22;10340;53.664;9.908;2022-10-17T11:44:53;20.90;99.90
20364;DHT22;10340;53.664;9.908;2022-10-17T11:47:28;20.90;99.90
20364;DHT22;10340;53.664;9.908;2022-10-17T11:50:02;20.90;99.90
20364;DHT22;10340;53.664;9.908;2022-10-17T11:52:36;20.90;99.90
20364;DHT22;10340;53.664;9.908;2022-10-17T11:55:10;20.80;99.90
20364;DHT22;10340;53.664;9.908;2022-10-17T11:57:52;20.80;99.90
20364;DHT22;10340;53.664;9.908;2022-10-17T12:00:33;20.70;99.90
20364;DHT22;10340;53.664;9.908;2022-10-17T12:03:15;20.60;99.90
20364;DHT22;10340;53.664;9.908;2022-10-17T12:05:49;20.50;99.90
20364;DHT22;10340;53.664;9.908;2022-10-17T12:08:24;20.50;99.90
20364;DHT22;10340;53.664;9.908;2022-10-17T12:10:55;20.40;99.90
20364;DHT22;10340;53.664;9.908;2022-10-17T12:13:48;20.30;99.90
20364;DHT22;10340;53.664;9.908;2022-10-17T12:16:49;20.20;99.90
20364;DHT22;10340;53.664;9.908;2022-10-17T12:19:24;20.10;99.90
20364;DHT22;10340;53.664;9.908;2022-10-17T12:22:02;20.00;99.90
20364;DHT22;10340;53.664;9.908;2022-10-17T12:24:40;19.80;99.90
20364;DHT22;10340;53.664;9.908;2022-10-17T12:27:41;19.60;99.90
20364;DHT22;10340;53.664;9.908;2022-10-17T12:30:22;19.50;99.90
20364;DHT22;10340;53.664;9.908;2022-10-17T12:33:15;19.30;99.90
20364;DHT22;10340;53.664;9.908;2022-10-17T12:35:47;19.20;99.90
20364;DHT22;10340;53.664;9.908;2022-10-17T12:38:26;19.10;99.90
20364;DHT22;10340;53.664;9.908;2022-10-17T12:40:55;18.90;99.90
20364;DHT22;10340;53.664;9.908;2022-10-17T12:43:43;18.90;99.90
20364;DHT22;10340;53.664;9.908;2022-10-17T12:46:11;18.80;99.90
20364;DHT22;10340;53.664;9.908;2022-10-17T12:49:02;18.70;99.90
20364;DHT22;10340;53.664;9.908;2022-10-17T12:54:33;18.60;99.90
20364;DHT22;10340;53.664;9.908;2022-10-17T12:57:13;18.60;99.90
20364;DHT22;10340;53.664;9.908;2022-10-17T12:59:42;18.50;99.90
20364;DHT22;10340;53.664;9.908;2022-10-17T13:02:17;18.50;99.90
20364;DHT22;10340;53.664;9.908;2022-10-17T13:04:45;18.40;99.90
20364;DHT22;10340;53.664;9.908;2022-10-17T13:07:17;18.50;99.90
20364;DHT22;10340;53.664;9.908;2022-10-17T13:09:48;18.30;99.90
20364;DHT22;10340;53.664;9.908;2022-10-17T13:12:19;18.30;99.90
20364;DHT22;10340;53.664;9.908;2022-10-17T13:14:50;18.20;99.90
20364;DHT22;10340;53.664;9.908;2022-10-17T13:17:23;18.10;99.90
20364;DHT22;10340;53.664;9.908;2022-10-17T13:19:50;18.10;99.90
20364;DHT22;10340;53.664;9.908;2022-10-17T13:22:19;18.00;99.90
20364;DHT22;10340;53.664;9.908;2022-10-17T13:24:48;18.00;99.90
20364;DHT22;10340;53.664;9.908;2022-10-17T13:27:24;17.90;99.90
20364;DHT22;10340;53.664;9.908;2022-10-17T13:29:52;17.90;99.90
20364;DHT22;10340;53.664;9.908;2022-10-17T13:32:21;18.60;99.90
20364;DHT22;10340;53.664;9.908;2022-10-17T13:35:04;17.90;99.90
20364;DHT22;10340;53.664;9.908;2022-10-17T13:37:31;17.80;99.90
20364;DHT22;10340;53.664;9.908;2022-10-17T13:39:59;17.90;99.90
20364;DHT22;10340;53.664;9.908;2022-10-17T13:42:28;17.90;99.90
20364;DHT22;10340;53.664;9.908;2022-10-17T13:44:57;17.90;99.90
20364;DHT22;10340;53.664;9.908;2022-10-17T13:47:27;17.80;99.90
20364;DHT22;10340;53.664;9.908;2022-10-17T13:49:55;17.80;99.90
20364;DHT22;10340;53.664;9.908;2022-10-17T13:52:26;17.90;99.90
20364;DHT22;10340;53.664;9.908;2022-10-17T13:54:53;17.80;99.90
20364;DHT22;10340;53.664;9.908;2022-10-17T13:57:24;17.80;99.90
20364;DHT22;10340;53.664;9.908;2022-10-17T13:59:53;17.80;99.90
20364;DHT22;10340;53.664;9.908;2022-10-17T14:02:23;17.70;99.90
20364;DHT22;10340;53.664;9.908;2022-10-17T14:05:01;17.70;99.90
20364;DHT22;10340;53.664;9.908;2022-10-17T14:07:35;17.70;99.90
20364;DHT22;10340;53.664;9.908;2022-10-17T14:10:03;17.60;99.90
20364;DHT22;10340;53.664;9.908;2022-10-17T14:12:33;17.60;99.90
20364;DHT22;10340;53.664;9.908;2022-10-17T14:15:02;17.60;99.90
20364;DHT22;10340;53.664;9.908;2022-10-17T14:17:30;17.70;99.90
20364;DHT22;10340;53.664;9.908;2022-10-17T14:19:58;17.60;99.90
20364;DHT22;10340;53.664;9.908;2022-10-17T14:22:28;17.70;99.90
20364;DHT22;10340;53.664;9.908;2022-10-17T14:24:56;17.70;99.90
20364;DHT22;10340;53.664;9.908;2022-10-17T14:27:26;17.70;99.90
20364;DHT22;10340;53.664;9.908;2022-10-17T14:29:56;17.80;99.90
20364;DHT22;10340;53.664;9.908;2022-10-17T14:32:25;17.70;99.90
20364;DHT22;10340;53.664;9.908;2022-10-17T14:34:54;17.80;99.90
20364;DHT22;10340;53.664;9.908;2022-10-17T14:37:31;17.70;99.90
20364;DHT22;10340;53.664;9.908;2022-10-17T14:40:00;17.70;99.90
20364;DHT22;10340;53.664;9.908;2022-10-17T14:42:28;17.70;99.90
20364;DHT22;10340;53.664;9.908;2022-10-17T14:45:04;17.70;99.90
20364;DHT22;10340;53.664;9.908;2022-10-17T14:47:31;17.70;99.90
20364;DHT22;10340;53.664;9.908;2022-10-17T14:50:05;17.70;99.90
20364;DHT22;10340;53.664;9.908;2022-10-17T14:52:32;17.70;99.90
20364;DHT22;10340;53.664;9.908;2022-10-17T14:55:16;17.60;99.90
20364;DHT22;10340;53.664;9.908;2022-10-17T14:57:45;17.60;99.90
20364;DHT22;10340;53.664;9.908;2022-10-17T15:00:15;17.60;99.90
20364;DHT22;10340;53.664;9.908;2022-10-17T15:02:43;17.60;99.90
20364;DHT22;10340;53.664;9.908;2022-10-17T15:05:10;17.70;99.90
20364;DHT22;10340;53.664;9.908;2022-10-17T15:07:37;17.60;99.90
20364;DHT22;10340;53.664;9.908;2022-10-17T15:10:05;17.60;99.90
20364;DHT22;10340;53.664;9.908;2022-10-17T15:12:32;17.60;99.90
20364;DHT22;10340;53.664;9.908;2022-10-17T15:14:59;17.60;99.90
20364;DHT22;10340;53.664;9.908;2022-10-17T15:17:29;17.50;99.90
20364;DHT22;10340;53.664;9.908;2022-10-17T15:19:56;17.50;99.90
20364;DHT22;10340;53.664;9.908;2022-10-17T15:22:23;17.60;99.90
20364;DHT22;10340;53.664;9.908;2022-10-17T15:24:50;17.60;99.90
20364;DHT22;10340;53.664;9.908;2022-10-17T15:27:19;17.50;99.90
20364;DHT22;10340;53.664;9.908;2022-10-17T15:29:46;17.50;99.90
20364;DHT22;10340;53.664;9.908;2022-10-17T15:32:13;17.50;99.90
20364;DHT22;10340;53.664;9.908;2022-10-17T15:34:41;17.50;99.90
20364;DHT22;10340;53.664;9.908;2022-10-17T15:37:16;17.50;99.90
20364;DHT22;10340;53.664;9.908;2022-10-17T15:39:47;17.50;99.90
20364;DHT22;10340;53.664;9.908;2022-10-17T15:42:17;17.50;99.90
20364;DHT22;10340;53.664;9.908;2022-10-17T15:44:44;17.40;99.90
20364;DHT22;10340;53.664;9.908;2022-10-17T15:47:21;17.40;99.90
20364;DHT22;10340;53.664;9.908;2022-10-17T15:49:50;17.40;99.90
20364;DHT22;10340;53.664;9.908;2022-10-17T15:52:17;17.40;99.90
20364;DHT22;10340;53.664;9.908;2022-10-17T15:54:44;17.40;99.90
20364;DHT22;10340;53.664;9.908;2022-10-17T15:57:15;17.40;99.90